Time;durP1;ratioP1;P1;durP2;ratioP2;P2;SDS_P1;SDS_P2;PMS_P1;PMS_P2;Temp;Humidity;BMP_temperature;BMP_pressure;BME280_temperature;BME280_humidity;BME280_pressure;Samples;Min_cycle;Max_cycle;Signal;HPM_P1;HPM_P2
2021/09/29 00:00:20;;;;;;;5.90;2.67;;;;;;;;;;5060833;28;20083;-60
2021/09/29 00:02:47;;;;;;;4.53;2.53;;;;;;;;;;5066858;28;20039;-59
2021/09/29 00:05:14;;;;;;;6.30;3.13;;;;;;;;;;5070771;28;20067;-60
2021/09/29 00:07:41;;;;;;;5.10;3.33;;;;;;;;;;5075310;28;20033;-59
2021/09/29 00:10:08;;;;;;;6.17;3.40;;;;;;;;;;5075059;28;20099;-59
2021/09/29 00:12:35;;;;;;;4.37;2.33;;;;;;;;;;5074856;28;20364;-60
2021/09/29 00:15:04;;;;;;;4.40;2.30;;;;;;;;;;5075371;28;20373;-59
2021/09/29 00:17:30;;;;;;;6.80;3.23;;;;;;;;;;5072436;28;20020;-60
2021/09/29 00:19:57;;;;;;;4.43;2.50;;;;;;;;;;5068861;28;20041;-59
2021/09/29 00:22:24;;;;;;;3.67;2.43;;;;;;;;;;5069550;28;20036;-59
2021/09/29 00:24:51;;;;;;;6.23;3.00;;;;;;;;;;5069639;28;20029;-60
2021/09/29 00:27:38;;;;;;;3.97;2.60;;;;;;;;;;5069969;28;20021;-59
2021/09/29 00:30:07;;;;;;;4.63;2.27;;;;;;;;;;5073999;28;20527;-59
2021/09/29 00:32:35;;;;;;;4.23;2.67;;;;;;;;;;5074509;28;20033;-59
2021/09/29 00:35:02;;;;;;;6.17;2.63;;;;;;;;;;5074469;28;20021;-59
2021/09/29 00:37:29;;;;;;;5.67;2.53;;;;;;;;;;5074534;28;20031;-59
2021/09/29 00:39:56;;;;;;;3.43;2.37;;;;;;;;;;5072070;28;20020;-59
2021/09/29 00:42:24;;;;;;;8.07;3.10;;;;;;;;;;5069600;28;20040;-59
2021/09/29 00:44:51;;;;;;;5.53;2.83;;;;;;;;;;5069569;28;20028;-59
2021/09/29 00:47:19;;;;;;;5.70;2.33;;;;;;;;;;5069534;28;20442;-59
2021/09/29 00:49:45;;;;;;;4.10;2.30;;;;;;;;;;5071222;28;20055;-59
2021/09/29 00:52:12;;;;;;;3.97;2.20;;;;;;;;;;5074772;28;20034;-59
2021/09/29 00:54:40;;;;;;;4.63;2.50;;;;;;;;;;5074565;28;20067;-59
2021/09/29 00:57:07;;;;;;;3.63;2.63;;;;;;;;;;5074161;28;20028;-59
2021/09/29 00:59:34;;;;;;;4.60;3.10;;;;;;;;;;5074323;28;20498;-59
2021/09/29 01:02:00;;;;;;;6.13;3.40;;;;;;;;;;5072756;28;20024;-59
2021/09/29 01:04:28;;;;;;;4.93;3.37;;;;;;;;;;5069126;28;20058;-60
2021/09/29 01:06:58;;;;;;;5.33;3.03;;;;;;;;;;5069092;28;20036;-58
2021/09/29 01:09:31;;;;;;;7.23;2.97;;;;;;;;;;5069331;28;20024;-61
2021/09/29 01:12:08;;;;;;;4.80;2.53;;;;;;;;;;5069799;28;20111;-59
2021/09/29 01:14:52;;;;;;;4.60;2.50;;;;;;;;;;5074150;28;20132;-59
2021/09/29 01:17:20;;;;;;;7.97;2.13;;;;;;;;;;5073727;28;20020;-59
2021/09/29 01:19:56;;;;;;;3.80;2.10;;;;;;;;;;5073775;28;20395;-59
2021/09/29 01:22:32;;;;;;;3.23;1.87;;;;;;;;;;5073744;28;20376;-59
2021/09/29 01:25:01;;;;;;;4.27;1.50;;;;;;;;;;5071431;28;20032;-60
2021/09/29 01:27:31;;;;;;;2.53;1.50;;;;;;;;;;5069050;28;20025;-59
2021/09/29 01:29:58;;;;;;;3.37;1.30;;;;;;;;;;5068600;28;20040;-59
2021/09/29 01:32:25;;;;;;;2.00;1.13;;;;;;;;;;5068841;28;20121;-59
2021/09/29 01:34:52;;;;;;;3.17;1.20;;;;;;;;;;5070989;28;20025;-59
2021/09/29 01:37:19;;;;;;;2.53;1.20;;;;;;;;;;5073730;28;20055;-59
2021/09/29 01:39:46;;;;;;;1.67;1.07;;;;;;;;;;5073455;28;20025;-59
2021/09/29 01:42:13;;;;;;;1.63;1.13;;;;;;;;;;5073364;28;20043;-59
2021/09/29 01:44:40;;;;;;;2.17;1.30;;;;;;;;;;5073345;28;20119;-59
2021/09/29 01:47:09;;;;;;;3.40;1.80;;;;;;;;;;5071342;28;20099;-60
2021/09/29 01:49:38;;;;;;;2.67;1.53;;;;;;;;;;5067206;28;20028;-59
2021/09/29 01:52:06;;;;;;;2.00;1.27;;;;;;;;;;5068492;28;20016;-58
2021/09/29 01:54:36;;;;;;;2.70;1.20;;;;;;;;;;5068731;28;20468;-59
2021/09/29 01:57:03;;;;;;;2.40;1.30;;;;;;;;;;5069739;28;20540;-58
2021/09/29 01:59:30;;;;;;;2.00;1.27;;;;;;;;;;5073404;28;20020;-59
2021/09/29 02:01:57;;;;;;;3.40;1.40;;;;;;;;;;5071735;28;20108;-59
2021/09/29 02:04:24;;;;;;;2.97;1.50;;;;;;;;;;5073555;28;20081;-58
2021/09/29 02:06:51;;;;;;;2.77;1.53;;;;;;;;;;5073053;28;20039;-59
2021/09/29 02:09:19;;;;;;;2.70;1.70;;;;;;;;;;5070913;28;20387;-58
2021/09/29 02:11:46;;;;;;;3.50;1.90;;;;;;;;;;5068169;28;20028;-59
2021/09/29 02:14:13;;;;;;;4.03;2.30;;;;;;;;;;5068095;28;20044;-58
2021/09/29 02:16:40;;;;;;;2.97;1.97;;;;;;;;;;5068012;28;20463;-58
2021/09/29 02:19:07;;;;;;;3.23;2.10;;;;;;;;;;5069108;28;20024;-58
2021/09/29 02:21:34;;;;;;;3.00;1.93;;;;;;;;;;5073060;28;20024;-57
2021/09/29 02:24:00;;;;;;;6.13;2.50;;;;;;;;;;5073146;28;20376;-57
2021/09/29 02:26:27;;;;;;;4.63;2.57;;;;;;;;;;5072070;28;20078;-58
2021/09/29 02:28:54;;;;;;;3.10;2.00;;;;;;;;;;5072316;28;20020;-57
2021/09/29 02:31:21;;;;;;;3.83;2.10;;;;;;;;;;5071530;28;20032;-58
2021/09/29 02:33:47;;;;;;;4.23;2.00;;;;;;;;;;5067542;28;20115;-58
2021/09/29 02:36:14;;;;;;;4.77;2.07;;;;;;;;;;5067270;28;20029;-58
2021/09/29 02:38:44;;;;;;;3.23;1.80;;;;;;;;;;5067182;28;20523;-59
2021/09/29 02:41:11;;;;;;;2.83;1.73;;;;;;;;;;5067580;28;20024;-58
2021/09/29 02:43:38;;;;;;;9.47;2.07;;;;;;;;;;5071930;28;20062;-58
2021/09/29 02:46:05;;;;;;;7.13;2.10;;;;;;;;;;5072665;28;20027;-60
2021/09/29 02:48:32;;;;;;;5.70;2.10;;;;;;;;;;5072166;28;20028;-59
2021/09/29 02:50:59;;;;;;;6.03;3.20;;;;;;;;;;5072416;28;20445;-59
2021/09/29 02:53:29;;;;;;;8.37;4.93;;;;;;;;;;5071563;28;20027;-59
2021/09/29 02:56:00;;;;;;;8.40;4.83;;;;;;;;;;5066498;28;20036;-59
2021/09/29 02:58:28;;;;;;;8.40;5.87;;;;;;;;;;5066741;28;20502;-59
2021/09/29 03:00:55;;;;;;;6.57;4.50;;;;;;;;;;5067062;28;20090;-59
2021/09/29 03:03:23;;;;;;;9.37;4.10;;;;;;;;;;5066895;28;20063;-59
2021/09/29 03:05:49;;;;;;;6.70;3.90;;;;;;;;;;5071881;28;20028;-59
2021/09/29 03:08:16;;;;;;;6.13;3.77;;;;;;;;;;5072201;28;20025;-59
2021/09/29 03:10:43;;;;;;;5.03;3.10;;;;;;;;;;5071993;28;20176;-59
2021/09/29 03:13:11;;;;;;;5.97;3.13;;;;;;;;;;5072280;28;20426;-59
2021/09/29 03:15:38;;;;;;;6.87;3.80;;;;;;;;;;5071916;28;20028;-59
2021/09/29 03:18:05;;;;;;;7.80;3.80;;;;;;;;;;5066915;28;20346;-59
2021/09/29 03:20:32;;;;;;;4.80;2.83;;;;;;;;;;5067210;28;20376;-59
2021/09/29 03:22:59;;;;;;;4.37;2.60;;;;;;;;;;5066667;28;20073;-59
2021/09/29 03:25:26;;;;;;;5.20;2.53;;;;;;;;;;5066817;28;20090;-59
2021/09/29 03:27:53;;;;;;;5.00;2.60;;;;;;;;;;5071716;28;20020;-59
2021/09/29 03:30:20;;;;;;;6.47;3.10;;;;;;;;;;5071868;28;20021;-58
2021/09/29 03:32:47;;;;;;;4.93;3.03;;;;;;;;;;5071816;28;20108;-59
2021/09/29 03:35:14;;;;;;;5.83;2.77;;;;;;;;;;5071747;28;20028;-58
2021/09/29 03:37:41;;;;;;;6.67;2.50;;;;;;;;;;5072087;28;20137;-59
2021/09/29 03:40:12;;;;;;;6.80;3.27;;;;;;;;;;5070199;28;20045;-59
2021/09/29 03:42:39;;;;;;;5.90;3.53;;;;;;;;;;5070925;28;20074;-58
2021/09/29 03:45:07;;;;;;;4.40;2.87;;;;;;;;;;5070374;28;20491;-59
2021/09/29 03:47:33;;;;;;;5.40;2.80;;;;;;;;;;5070360;28;20170;-59
2021/09/29 03:50:00;;;;;;;6.67;3.10;;;;;;;;;;5074850;28;20016;-59
2021/09/29 03:52:28;;;;;;;6.80;3.40;;;;;;;;;;5075625;28;20104;-58
2021/09/29 03:54:55;;;;;;;5.37;3.00;;;;;;;;;;5075673;28;20472;-58
2021/09/29 03:57:22;;;;;;;5.93;3.20;;;;;;;;;;5075220;28;20056;-58
2021/09/29 03:59:49;;;;;;;6.20;3.60;;;;;;;;;;5075690;28;20033;-59
2021/09/29 04:02:15;;;;;;;7.47;4.60;;;;;;;;;;5071097;28;20028;-58
2021/09/29 04:04:42;;;;;;;7.33;4.60;;;;;;;;;;5070033;28;20064;-59
2021/09/29 04:07:09;;;;;;;8.77;4.37;;;;;;;;;;5070168;28;20032;-59
2021/09/29 04:09:36;;;;;;;6.13;4.13;;;;;;;;;;5070149;28;20082;-59
2021/09/29 04:12:03;;;;;;;7.03;3.90;;;;;;;;;;5073520;28;20052;-59
2021/09/29 04:14:29;;;;;;;7.73;4.50;;;;;;;;;;5075364;28;20064;-59
2021/09/29 04:16:56;;;;;;;10.57;3.87;;;;;;;;;;5075043;28;20032;-59
2021/09/29 04:19:23;;;;;;;6.53;3.60;;;;;;;;;;5075203;28;20028;-60
2021/09/29 04:21:50;;;;;;;5.33;3.50;;;;;;;;;;5074993;28;20475;-59
2021/09/29 04:24:17;;;;;;;5.03;2.80;;;;;;;;;;5071810;28;20037;-60
2021/09/29 04:26:44;;;;;;;5.57;3.57;;;;;;;;;;5069516;28;20024;-61
2021/09/29 04:29:11;;;;;;;6.33;4.10;;;;;;;;;;5069960;28;20040;-60
2021/09/29 04:31:38;;;;;;;4.60;3.03;;;;;;;;;;5069750;28;20024;-59
2021/09/29 04:34:05;;;;;;;4.50;3.10;;;;;;;;;;5072604;28;20017;-59
2021/09/29 04:36:33;;;;;;;6.87;2.97;;;;;;;;;;5074440;28;20031;-60
2021/09/29 04:39:00;;;;;;;8.60;3.47;;;;;;;;;;5075180;28;20059;-60
2021/09/29 04:41:27;;;;;;;5.73;3.37;;;;;;;;;;5056904;28;20072;-59
2021/09/29 04:43:53;;;;;;;5.00;3.43;;;;;;;;;;5074806;28;20035;-60
2021/09/29 04:46:20;;;;;;;6.57;3.67;;;;;;;;;;5071616;28;20590;-60
2021/09/29 04:48:47;;;;;;;5.70;3.80;;;;;;;;;;5069649;28;20445;-60
2021/09/29 04:51:14;;;;;;;5.50;3.70;;;;;;;;;;5068833;28;20032;-59
2021/09/29 04:53:41;;;;;;;5.40;3.50;;;;;;;;;;5069174;28;20116;-60
2021/09/29 04:56:08;;;;;;;5.10;3.53;;;;;;;;;;5071278;28;20020;-59
2021/09/29 04:58:36;;;;;;;6.57;3.80;;;;;;;;;;5056637;28;20024;-59
2021/09/29 05:01:03;;;;;;;6.03;4.10;;;;;;;;;;5074501;28;20025;-59
2021/09/29 05:03:31;;;;;;;7.50;3.87;;;;;;;;;;5074323;28;20063;-59
2021/09/29 05:05:58;;;;;;;5.40;3.47;;;;;;;;;;5073858;28;20094;-59
2021/09/29 05:08:26;;;;;;;5.10;3.37;;;;;;;;;;5071849;28;20093;-60
2021/09/29 05:11:11;;;;;;;5.10;3.20;;;;;;;;;;5068916;28;20029;-60
2021/09/29 05:13:37;;;;;;;;;;;;;;;;;;5069567;28;20054;-60
2021/09/29 05:16:04;;;;;;;6.17;3.77;;;;;;;;;;5068854;28;20072;-59
2021/09/29 05:18:31;;;;;;;5.90;3.57;;;;;;;;;;5071482;28;20028;-59
2021/09/29 05:20:59;;;;;;;5.83;3.77;;;;;;;;;;5074019;28;20032;-59
2021/09/29 05:23:26;;;;;;;5.37;3.20;;;;;;;;;;5074038;28;20094;-59
2021/09/29 05:25:53;;;;;;;6.83;4.53;;;;;;;;;;5073733;28;20021;-59
2021/09/29 05:28:23;;;;;;;6.77;4.60;;;;;;;;;;5073918;28;20029;-59
2021/09/29 05:30:50;;;;;;;5.10;3.83;;;;;;;;;;5071244;28;20016;-59
2021/09/29 05:33:17;;;;;;;5.40;3.40;;;;;;;;;;5068718;28;20037;-60
2021/09/29 05:35:44;;;;;;;5.80;3.60;;;;;;;;;;5066917;28;20020;-60
2021/09/29 05:38:11;;;;;;;8.30;3.77;;;;;;;;;;5048223;28;20107;-60
2021/09/29 05:40:37;;;;;;;7.87;4.23;;;;;;;;;;5050716;28;20043;-59
2021/09/29 05:43:05;;;;;;;6.17;3.97;;;;;;;;;;5053423;28;20029;-59
2021/09/29 05:45:32;;;;;;;5.20;3.73;;;;;;;;;;5055158;28;20546;-59
2021/09/29 05:47:58;;;;;;;7.23;4.27;;;;;;;;;;5073643;28;20025;-59
2021/09/29 05:50:26;;;;;;;5.63;3.80;;;;;;;;;;5073471;28;20048;-59
2021/09/29 05:52:52;;;;;;;6.93;4.03;;;;;;;;;;5071448;28;20107;-59
2021/09/29 05:55:19;;;;;;;5.33;3.70;;;;;;;;;;5068062;28;20025;-59
2021/09/29 05:57:46;;;;;;;6.13;4.07;;;;;;;;;;5067916;28;20118;-59
2021/09/29 06:00:14;;;;;;;6.53;3.70;;;;;;;;;;5068027;28;20714;-59
2021/09/29 06:02:41;;;;;;;6.53;3.83;;;;;;;;;;5068276;28;20103;-59
2021/09/29 06:05:08;;;;;;;5.57;3.93;;;;;;;;;;5073109;28;20059;-59
2021/09/29 06:07:35;;;;;;;7.07;3.63;;;;;;;;;;5072875;28;20032;-59
2021/09/29 06:10:02;;;;;;;6.17;3.97;;;;;;;;;;5072700;28;20104;-59
2021/09/29 06:12:29;;;;;;;7.53;4.23;;;;;;;;;;5072606;28;20032;-59
2021/09/29 06:14:56;;;;;;;7.40;4.60;;;;;;;;;;5071691;28;20048;-59
2021/09/29 06:17:43;;;;;;;6.07;4.43;;;;;;;;;;5067477;28;20037;-59
2021/09/29 06:20:10;;;;;;;6.03;4.20;;;;;;;;;;5067662;28;20090;-59
2021/09/29 06:22:38;;;;;;;5.33;3.97;;;;;;;;;;5067314;28;20078;-59
2021/09/29 06:25:06;;;;;;;4.87;3.20;;;;;;;;;;5068875;28;20098;-59
2021/09/29 06:27:33;;;;;;;6.47;3.37;;;;;;;;;;5072164;28;20144;-59
2021/09/29 06:30:00;;;;;;;7.90;3.77;;;;;;;;;;5072639;28;20078;-59
2021/09/29 06:32:27;;;;;;;6.50;3.77;;;;;;;;;;5072745;28;20511;-59
2021/09/29 06:34:54;;;;;;;8.53;4.83;;;;;;;;;;5072690;28;20472;-60
2021/09/29 06:37:20;;;;;;;8.23;4.70;;;;;;;;;;5070635;28;20111;-60
2021/09/29 06:39:47;;;;;;;7.67;5.00;;;;;;;;;;5067121;28;20021;-59
2021/09/29 06:42:14;;;;;;;6.60;3.73;;;;;;;;;;5067527;28;20350;-60
2021/09/29 06:44:41;;;;;;;6.67;4.60;;;;;;;;;;5067304;28;20025;-60
2021/09/29 06:47:08;;;;;;;7.70;4.80;;;;;;;;;;5067479;28;20384;-59
2021/09/29 06:49:35;;;;;;;9.90;5.10;;;;;;;;;;5072619;28;20478;-59
2021/09/29 06:52:02;;;;;;;11.27;5.10;;;;;;;;;;5072429;28;20028;-59
2021/09/29 06:54:29;;;;;;;7.83;4.60;;;;;;;;;;5072135;28;20017;-59
2021/09/29 06:56:55;;;;;;;5.83;3.97;;;;;;;;;;5072230;28;20032;-59
2021/09/29 06:59:22;;;;;;;8.73;4.60;;;;;;;;;;5071126;28;20083;-59
2021/09/29 07:01:49;;;;;;;7.00;4.47;;;;;;;;;;5067340;28;20360;-59
2021/09/29 07:04:16;;;;;;;7.00;4.73;;;;;;;;;;5066518;28;20491;-59
2021/09/29 07:06:42;;;;;;;7.17;3.90;;;;;;;;;;5067236;28;20472;-59
2021/09/29 07:09:09;;;;;;;5.83;4.23;;;;;;;;;;5067037;28;20040;-59
2021/09/29 07:11:36;;;;;;;8.43;4.73;;;;;;;;;;5072004;28;20036;-59
2021/09/29 07:14:03;;;;;;;7.90;4.70;;;;;;;;;;5071633;28;20071;-59
2021/09/29 07:16:30;;;;;;;8.53;4.57;;;;;;;;;;5072294;28;20024;-59
2021/09/29 07:19:01;;;;;;;8.90;4.53;;;;;;;;;;5072210;28;20021;-59
2021/09/29 07:21:28;;;;;;;8.33;4.17;;;;;;;;;;5071329;28;20025;-60
2021/09/29 07:23:56;;;;;;;6.03;3.23;;;;;;;;;;5067180;28;20037;-60
2021/09/29 07:26:23;;;;;;;6.27;3.47;;;;;;;;;;5046977;28;20017;-59
2021/09/29 07:28:50;;;;;;;5.57;2.67;;;;;;;;;;5046516;28;20029;-59
2021/09/29 07:31:17;;;;;;;3.37;2.10;;;;;;;;;;5047027;28;20150;-59
2021/09/29 07:33:44;;;;;;;4.67;2.00;;;;;;;;;;5051930;28;20488;-59
2021/09/29 07:36:11;;;;;;;3.90;2.00;;;;;;;;;;5070828;28;20104;-59
2021/09/29 07:38:40;;;;;;;4.97;2.50;;;;;;;;;;5071895;28;20033;-59
2021/09/29 07:41:07;;;;;;;3.53;1.57;;;;;;;;;;5071694;28;20364;-59
2021/09/29 07:43:33;;;;;;;2.33;1.23;;;;;;;;;;5071191;28;20051;-59
2021/09/29 07:46:00;;;;;;;2.50;1.47;;;;;;;;;;5066808;28;20098;-59
2021/09/29 07:48:27;;;;;;;2.07;0.97;;;;;;;;;;5066812;28;20382;-59
2021/09/29 07:50:54;;;;;;;3.07;1.43;;;;;;;;;;5066891;28;20062;-59
2021/09/29 07:53:24;;;;;;;4.03;1.60;;;;;;;;;;5066460;28;20029;-59
2021/09/29 07:55:53;;;;;;;4.60;1.47;;;;;;;;;;5051198;28;20029;-59
2021/09/29 07:58:20;;;;;;;3.40;1.53;;;;;;;;;;5051676;28;20036;-59
2021/09/29 08:00:47;;;;;;;2.47;1.43;;;;;;;;;;5051568;28;20067;-60
2021/09/29 08:03:14;;;;;;;5.40;2.40;;;;;;;;;;5051710;28;20033;-59
2021/09/29 08:05:41;;;;;;;4.63;1.63;;;;;;;;;;5070733;28;20151;-59
2021/09/29 08:08:08;;;;;;;2.10;1.33;;;;;;;;;;5066598;28;20429;-59
2021/09/29 08:10:34;;;;;;;3.27;1.60;;;;;;;;;;5066371;28;20036;-60
2021/09/29 08:13:02;;;;;;;2.93;1.67;;;;;;;;;;5066570;28;20108;-58
2021/09/29 08:15:29;;;;;;;3.50;2.00;;;;;;;;;;5065705;28;20103;-60
2021/09/29 08:17:55;;;;;;;4.30;1.83;;;;;;;;;;5070657;28;20055;-59
2021/09/29 08:20:23;;;;;;;3.17;1.73;;;;;;;;;;5071645;28;20525;-59
2021/09/29 08:22:55;;;;;;;2.73;1.80;;;;;;;;;;5071394;28;20515;-59
2021/09/29 08:25:45;;;;;;;3.17;1.73;;;;;;;;;;5071478;28;20448;-59
2021/09/29 08:28:29;;;;;;;5.50;2.77;;;;;;;;;;5074878;28;20108;-59
2021/09/29 08:38:49;;;;;;;4.60;2.80;;;;;;;;;;5050640;28;20029;-59
2021/09/29 08:44:08;;;;;;;3.63;2.27;;;;;;;;;;5059245;28;20160;-59
2021/09/29 08:46:57;;;;;;;6.10;2.80;;;;;;;;;;5074118;28;20063;-59
2021/09/29 08:49:37;;;;;;;4.10;2.43;;;;;;;;;;5074672;28;20031;-59
2021/09/29 08:57:19;;;;;;;4.30;2.47;;;;;;;;;;5069376;28;20040;-59
2021/09/29 09:16:22;;;;;;;;;;;;;;;;;;5069920;28;20538;-59
2021/09/29 09:18:52;;;;;;;3.80;2.30;;;;;;;;;;5069056;28;19905;-59
2021/09/29 09:21:19;;;;;;;4.80;2.30;;;;;;;;;;5051059;28;20024;-59
2021/09/29 09:23:46;;;;;;;6.10;2.50;;;;;;;;;;5070149;28;20028;-58
2021/09/29 09:26:13;;;;;;;3.57;1.93;;;;;;;;;;5073890;28;20025;-58
2021/09/29 09:28:40;;;;;;;3.07;1.80;;;;;;;;;;5073860;28;20035;-58
2021/09/29 09:31:11;;;;;;;3.63;2.20;;;;;;;;;;5073881;28;20024;-58
2021/09/29 09:33:59;;;;;;;5.47;2.23;;;;;;;;;;5073913;28;20025;-59
2021/09/29 09:36:29;;;;;;;3.50;1.80;;;;;;;;;;5070423;28;20017;-58
2021/09/29 09:38:57;;;;;;;4.67;2.20;;;;;;;;;;5048453;28;20029;-58
2021/09/29 09:41:24;;;;;;;3.90;2.40;;;;;;;;;;5048829;28;20092;-58
2021/09/29 09:43:56;;;;;;;3.60;2.30;;;;;;;;;;5048533;28;20457;-59
2021/09/29 09:46:23;;;;;;;3.33;2.13;;;;;;;;;;5051257;28;20017;-58
2021/09/29 09:49:13;;;;;;;3.87;2.13;;;;;;;;;;5072591;28;20029;-59
2021/09/29 09:51:47;;;;;;;5.00;2.53;;;;;;;;;;5073580;28;20024;-58
2021/09/29 09:54:14;;;;;;;3.70;2.03;;;;;;;;;;5073454;28;20036;-58
2021/09/29 09:56:43;;;;;;;3.57;1.90;;;;;;;;;;5072782;28;20020;-58
2021/09/29 09:59:10;;;;;;;6.40;2.10;;;;;;;;;;5069247;28;20533;-58
2021/09/29 10:01:37;;;;;;;6.43;2.67;;;;;;;;;;5068220;28;20033;-58
2021/09/29 10:04:10;;;;;;;3.53;1.83;;;;;;;;;;5067992;28;20035;-58
2021/09/29 10:06:37;;;;;;;3.50;2.20;;;;;;;;;;5068003;28;20028;-58
2021/09/29 10:09:30;;;;;;;3.37;2.17;;;;;;;;;;5071355;28;20046;-58
2021/09/29 10:14:38;;;;;;;5.27;2.67;;;;;;;;;;5073061;28;20032;-58
2021/09/29 10:23:22;;;;;;;4.68;2.15;;;;;;;;;;4985694;28;20053;-58
2021/09/29 10:26:21;;;;;;;3.90;2.23;;;;;;;;;;5048903;28;20041;-58
2021/09/29 10:28:48;;;;;;;5.13;2.53;;;;;;;;;;5067427;28;20107;-58
2021/09/29 10:34:16;;;;;;;3.80;2.43;;;;;;;;;;5072656;28;20052;-57
2021/09/29 10:37:12;;;;;;;5.30;2.50;;;;;;;;;;5072644;28;20048;-58
2021/09/29 10:42:51;;;;;;;4.17;2.43;;;;;;;;;;5071353;28;20039;-58
2021/09/29 10:45:30;;;;;;;4.83;2.40;;;;;;;;;;5066126;28;20106;-58
2021/09/29 10:50:59;;;;;;;3.30;2.03;;;;;;;;;;5067435;28;20110;-58
2021/09/29 11:07:13;;;;;;;5.20;2.77;;;;;;;;;;5066577;28;20029;-58
2021/09/29 11:29:52;;;;;;;4.43;2.55;;;;;;;;;;5060345;28;20631;-58
2021/09/29 11:32:27;;;;;;;7.37;2.20;;;;;;;;;;5065593;28;20028;-58
2021/09/29 11:34:58;;;;;;;4.43;2.53;;;;;;;;;;5066337;28;20071;-58
2021/09/29 12:08:29;;;;;;;6.83;2.73;;;;;;;;;;5075601;28;19911;-58
2021/09/29 12:11:16;;;;;;;4.40;2.50;;;;;;;;;;5075455;28;20032;-58
2021/09/29 12:14:05;;;;;;;3.87;2.20;;;;;;;;;;5069873;28;20024;-58
2021/09/29 12:16:36;;;;;;;3.30;1.93;;;;;;;;;;5070008;28;20051;-58
2021/09/29 12:19:04;;;;;;;5.33;2.73;;;;;;;;;;5069187;28;20108;-58
2021/09/29 12:21:44;;;;;;;3.87;2.60;;;;;;;;;;5071143;28;20127;-58
2021/09/29 12:24:13;;;;;;;4.40;2.70;;;;;;;;;;5075342;28;20067;-58
2021/09/29 12:26:41;;;;;;;4.20;2.80;;;;;;;;;;5075024;28;20396;-58
2021/09/29 12:29:22;;;;;;;5.10;3.33;;;;;;;;;;5074634;28;20027;-58
2021/09/29 12:32:02;;;;;;;4.93;2.90;;;;;;;;;;5074997;28;20112;-58
2021/09/29 12:34:32;;;;;;;4.97;2.80;;;;;;;;;;5071888;28;20116;-58
2021/09/29 12:37:11;;;;;;;5.20;3.20;;;;;;;;;;5069680;28;20068;-58
2021/09/29 12:39:39;;;;;;;5.47;2.60;;;;;;;;;;5069727;28;20111;-58
2021/09/29 12:42:07;;;;;;;8.50;3.10;;;;;;;;;;5069499;28;20059;-58
2021/09/29 12:44:33;;;;;;;5.30;2.67;;;;;;;;;;5071744;28;20040;-58
2021/09/29 12:47:23;;;;;;;5.67;3.53;;;;;;;;;;5074698;28;20034;-58
2021/09/29 12:49:50;;;;;;;5.17;2.67;;;;;;;;;;5074316;28;20413;-58
2021/09/29 12:52:27;;;;;;;4.67;2.77;;;;;;;;;;5074889;28;20548;-58
2021/09/29 12:54:56;;;;;;;4.47;2.43;;;;;;;;;;5074495;28;20024;-58
2021/09/29 12:57:24;;;;;;;6.87;2.53;;;;;;;;;;5070275;28;20032;-59
2021/09/29 12:59:51;;;;;;;4.00;2.83;;;;;;;;;;5069386;28;20038;-59
2021/09/29 13:02:17;;;;;;;4.40;2.70;;;;;;;;;;5068974;28;20100;-58
2021/09/29 13:04:44;;;;;;;4.17;2.70;;;;;;;;;;5069378;28;20139;-58
2021/09/29 13:07:11;;;;;;;7.23;3.30;;;;;;;;;;5071959;28;20024;-58
2021/09/29 13:09:38;;;;;;;5.43;3.63;;;;;;;;;;5074439;28;20021;-58
2021/09/29 13:12:04;;;;;;;9.13;2.93;;;;;;;;;;5073779;28;20016;-57
2021/09/29 13:14:31;;;;;;;4.07;2.87;;;;;;;;;;5074213;28;20032;-58
2021/09/29 13:16:58;;;;;;;4.27;2.80;;;;;;;;;;5073746;28;20466;-58
2021/09/29 13:22:23;;;;;;;6.90;3.00;;;;;;;;;;5047197;28;20093;-58
2021/09/29 13:27:30;;;;;;;5.13;3.17;;;;;;;;;;5068451;28;20479;-58
2021/09/29 13:37:54;;;;;;;3.63;2.37;;;;;;;;;;5073607;28;20024;-58
2021/09/29 13:40:21;;;;;;;3.10;2.37;;;;;;;;;;5072923;28;20028;-58
2021/09/29 13:42:48;;;;;;;5.30;2.80;;;;;;;;;;5068527;28;20030;-58
2021/09/29 13:45:14;;;;;;;4.50;3.33;;;;;;;;;;5068709;28;20052;-58
2021/09/29 13:47:41;;;;;;;4.70;3.30;;;;;;;;;;5067794;28;20048;-60
2021/09/29 13:50:08;;;;;;;4.87;3.23;;;;;;;;;;5068197;28;20043;-59
2021/09/29 13:52:36;;;;;;;4.30;3.10;;;;;;;;;;5073464;28;20025;-58
2021/09/29 13:55:06;;;;;;;4.23;3.13;;;;;;;;;;5073149;28;20105;-58
2021/09/29 13:57:40;;;;;;;4.27;3.23;;;;;;;;;;5073334;28;20028;-59
2021/09/29 14:03:03;;;;;;;6.00;3.50;;;;;;;;;;5072959;28;20041;-58
2021/09/29 14:30:19;;;;;;;7.38;3.58;;;;;;;;;;5047772;28;20067;-58
2021/09/29 14:35:22;;;;;;;4.50;3.10;;;;;;;;;;5048901;28;20407;-58
2021/09/29 14:37:49;;;;;;;6.27;4.47;;;;;;;;;;5062955;28;20020;-58
2021/09/29 14:40:18;;;;;;;8.90;5.43;;;;;;;;;;5072443;28;20556;-58
2021/09/29 14:42:45;;;;;;;9.83;6.10;;;;;;;;;;5072623;28;20036;-58
2021/09/29 14:45:12;;;;;;;6.57;4.60;;;;;;;;;;5071950;28;20032;-58
2021/09/29 14:47:38;;;;;;;12.50;4.90;;;;;;;;;;5070898;28;20103;-58
2021/09/29 14:50:05;;;;;;;6.97;5.07;;;;;;;;;;5067338;28;20119;-58
2021/09/29 14:52:32;;;;;;;12.80;5.43;;;;;;;;;;5067064;28;20031;-58
2021/09/29 14:55:00;;;;;;;9.13;5.23;;;;;;;;;;5067455;28;20034;-58
2021/09/29 14:57:26;;;;;;;6.10;4.20;;;;;;;;;;5067607;28;20020;-58
2021/09/29 14:59:53;;;;;;;6.50;4.07;;;;;;;;;;5072474;28;20418;-58
2021/09/29 15:02:20;;;;;;;8.40;4.80;;;;;;;;;;5072285;28;20049;-58
2021/09/29 15:04:47;;;;;;;6.83;4.87;;;;;;;;;;5071926;28;20032;-59
2021/09/29 15:07:14;;;;;;;8.13;5.50;;;;;;;;;;5072162;28;20025;-59
2021/09/29 15:09:41;;;;;;;6.53;5.33;;;;;;;;;;5069145;28;20031;-59
2021/09/29 15:12:08;;;;;;;8.50;5.30;;;;;;;;;;5067094;28;20016;-59
2021/09/29 15:17:15;;;;;;;6.20;4.67;;;;;;;;;;5066963;28;20036;-59
2021/09/29 15:24:42;;;;;;;5.63;4.03;;;;;;;;;;5072093;28;20502;-59
2021/09/29 15:27:39;;;;;;;6.10;4.40;;;;;;;;;;5072244;28;20024;-58
2021/09/29 15:47:05;;;;;;;;;;;;;;;;;;5076269;28;20043;-59
2021/09/29 15:52:34;;;;;;;4.87;3.00;;;;;;;;;;5075719;28;20137;-59
2021/09/29 15:55:09;;;;;;;4.53;3.17;;;;;;;;;;5072927;28;20047;-59
2021/09/29 16:03:06;;;;;;;4.30;3.23;;;;;;;;;;5070797;28;20098;-59
2021/09/29 16:05:56;;;;;;;4.83;2.87;;;;;;;;;;5073767;28;20101;-59
2021/09/29 16:13:53;;;;;;;;;;;;;;;;;;5075856;28;20079;-59
2021/09/29 16:18:59;;;;;;;12.40;3.30;;;;;;;;;;5070044;28;20086;-59
2021/09/29 16:34:48;;;;;;;4.93;3.30;;;;;;;;;;5075052;28;19912;-60
2021/09/29 16:37:15;;;;;;;5.00;2.90;;;;;;;;;;5074734;28;20370;-59
2021/09/29 16:39:43;;;;;;;2.97;2.20;;;;;;;;;;5071958;28;20024;-60
2021/09/29 16:42:11;;;;;;;7.13;3.23;;;;;;;;;;5069735;28;20127;-59
2021/09/29 16:44:38;;;;;;;4.60;2.90;;;;;;;;;;5069162;28;20089;-59
2021/09/29 16:47:05;;;;;;;6.10;3.47;;;;;;;;;;5068681;28;20033;-59
2021/09/29 16:49:32;;;;;;;4.15;2.88;;;;;;;;;;5071496;28;20017;-59
2021/09/29 16:52:08;;;;;;;3.42;2.30;;;;;;;;;;5074657;28;20036;-59
2021/09/29 16:54:35;;;;;;;4.53;3.00;;;;;;;;;;5074526;28;20460;-59
2021/09/29 16:57:10;;;;;;;5.03;3.40;;;;;;;;;;5074545;28;20036;-59
2021/09/29 16:59:45;;;;;;;3.35;2.40;;;;;;;;;;5074217;28;20059;-59
2021/09/29 17:02:14;;;;;;;5.05;2.85;;;;;;;;;;5060731;28;20089;-59
2021/09/29 17:04:43;;;;;;;3.92;2.95;;;;;;;;;;5069171;28;20063;-59
2021/09/29 17:07:10;;;;;;;3.85;2.47;;;;;;;;;;5069196;28;20107;-59
2021/09/29 17:09:37;;;;;;;4.43;3.28;;;;;;;;;;5069474;28;20089;-59
2021/09/29 17:12:04;;;;;;;5.88;2.53;;;;;;;;;;5071859;28;20099;-59
2021/09/29 17:14:31;;;;;;;4.57;3.10;;;;;;;;;;5074238;28;20029;-59
2021/09/29 17:16:58;;;;;;;3.42;2.13;;;;;;;;;;5074197;28;20020;-60
2021/09/29 17:19:24;;;;;;;3.38;2.17;;;;;;;;;;5073442;28;20021;-61
2021/09/29 17:21:52;;;;;;;3.58;2.50;;;;;;;;;;5073966;28;20020;-60
2021/09/29 17:24:19;;;;;;;5.32;2.97;;;;;;;;;;5071050;28;20040;-60
2021/09/29 17:26:46;;;;;;;8.32;2.58;;;;;;;;;;5068618;28;20032;-59
2021/09/29 17:29:15;;;;;;;3.45;2.50;;;;;;;;;;5068807;28;20021;-60
2021/09/29 17:34:22;;;;;;;3.95;2.67;;;;;;;;;;5070869;28;20035;-59
2021/09/29 17:37:06;;;;;;;6.10;2.60;;;;;;;;;;5073506;28;20093;-63
2021/09/29 17:53:19;;;;;;;3.35;2.00;;;;;;;;;;5067975;28;20095;-59
2021/09/29 17:55:46;;;;;;;3.65;2.10;;;;;;;;;;5069029;28;20036;-59
2021/09/29 17:58:15;;;;;;;3.17;2.15;;;;;;;;;;5072975;28;20043;-59
2021/09/29 18:00:46;;;;;;;5.85;2.65;;;;;;;;;;5073471;28;20466;-59
2021/09/29 18:03:22;;;;;;;4.03;2.50;;;;;;;;;;5072820;28;20112;-59
2021/09/29 18:08:40;;;;;;;3.17;1.98;;;;;;;;;;5050998;28;20106;-59
2021/09/29 18:11:07;;;;;;;4.43;2.63;;;;;;;;;;5047910;28;20104;-60
2021/09/29 18:13:34;;;;;;;4.15;2.60;;;;;;;;;;5050378;28;20551;-59
2021/09/29 18:16:00;;;;;;;3.97;2.40;;;;;;;;;;5067795;28;20390;-59
2021/09/29 18:18:27;;;;;;;3.30;2.45;;;;;;;;;;5069759;28;20555;-59
2021/09/29 18:20:54;;;;;;;3.67;2.15;;;;;;;;;;5072449;28;20459;-59
2021/09/29 18:23:21;;;;;;;3.28;1.90;;;;;;;;;;5072650;28;20475;-60
2021/09/29 18:25:47;;;;;;;5.90;2.47;;;;;;;;;;5072916;28;20103;-59
2021/09/29 18:28:14;;;;;;;4.57;2.50;;;;;;;;;;5072692;28;20050;-60
2021/09/29 18:30:44;;;;;;;3.15;2.25;;;;;;;;;;5070650;28;20571;-60
2021/09/29 18:33:22;;;;;;;3.08;2.30;;;;;;;;;;5067723;28;20601;-59
2021/09/29 18:35:53;;;;;;;4.32;2.30;;;;;;;;;;5066771;28;20036;-60
2021/09/29 18:38:28;;;;;;;4.47;2.47;;;;;;;;;;5067599;28;20050;-59
2021/09/29 18:40:56;;;;;;;2.58;1.75;;;;;;;;;;5069344;28;20036;-60
2021/09/29 18:43:26;;;;;;;5.22;2.55;;;;;;;;;;5072071;28;20033;-59
2021/09/29 18:45:53;;;;;;;3.35;2.10;;;;;;;;;;5072423;28;20498;-59